Time;durP1;ratioP1;P1;durP2;ratioP2;P2;SDS_P1;SDS_P2;PMS_P1;PMS_P2;Temp;Humidity;BMP_temperature;BMP_pressure;BME280_temperature;BME280_humidity;BME280_pressure;Samples;Min_cycle;Max_cycle;Signal;HPM_P1;HPM_P2
2023/06/10 00:02:08;;;;;;;15.83;14.53;;;21.10;98.10;;;;;;4956437;29;20400;-58
2023/06/10 00:04:36;;;;;;;14.57;13.37;;;21.00;98.20;;;;;;4955273;29;20424;-58
2023/06/10 00:07:03;;;;;;;14.77;13.67;;;21.00;98.50;;;;;;4956700;28;20636;-59
2023/06/10 00:09:29;;;;;;;13.80;12.70;;;20.90;98.70;;;;;;4954309;28;20764;-58
2023/06/10 00:11:55;;;;;;;13.50;12.60;;;20.90;98.80;;;;;;4955676;29;20448;-58
2023/06/10 00:14:21;;;;;;;13.80;12.60;;;20.90;99.00;;;;;;4955248;29;20216;-59
2023/06/10 00:16:46;;;;;;;15.00;13.80;;;20.90;99.20;;;;;;4955658;29;20188;-58
2023/06/10 00:19:16;;;;;;;16.67;15.30;;;20.80;99.40;;;;;;4956159;29;20229;-58
2023/06/10 00:21:44;;;;;;;16.67;15.27;;;20.80;99.50;;;;;;4951627;28;20564;-58
2023/06/10 00:24:11;;;;;;;14.87;13.70;;;20.80;99.50;;;;;;4954510;28;20508;-58
2023/06/10 00:26:38;;;;;;;15.83;14.57;;;20.70;99.30;;;;;;4955440;29;20408;-59
2023/06/10 00:29:03;;;;;;;15.17;14.07;;;20.70;99.50;;;;;;4955929;28;20416;-58
2023/06/10 00:31:30;;;;;;;15.57;14.37;;;20.70;99.50;;;;;;4955688;29;20417;-59
2023/06/10 00:33:56;;;;;;;14.77;13.70;;;20.60;99.60;;;;;;4955367;28;20447;-58
2023/06/10 00:36:21;;;;;;;15.20;14.00;;;20.60;99.70;;;;;;4955777;28;20846;-58
2023/06/10 00:38:47;;;;;;;14.80;13.40;;;20.60;99.70;;;;;;4952323;29;20181;-58
2023/06/10 00:41:13;;;;;;;13.60;12.60;;;20.60;99.90;;;;;;4955689;28;20200;-58
2023/06/10 00:43:39;;;;;;;14.57;13.43;;;20.60;99.90;;;;;;4954927;28;20585;-58
2023/06/10 00:46:05;;;;;;;14.40;13.40;;;20.60;99.90;;;;;;4955750;28;20417;-58
2023/06/10 00:48:32;;;;;;;15.40;14.20;;;20.60;99.90;;;;;;4954609;28;20185;-58
2023/06/10 00:50:59;;;;;;;14.83;13.70;;;20.60;99.90;;;;;;4954631;29;20882;-58
2023/06/10 00:53:25;;;;;;;15.23;14.03;;;20.60;99.90;;;;;;4955533;28;20445;-58
2023/06/10 00:55:51;;;;;;;14.80;13.70;;;20.60;99.90;;;;;;4954130;29;20820;-58
2023/06/10 00:58:16;;;;;;;15.37;14.17;;;20.50;99.90;;;;;;4954627;28;20408;-58
2023/06/10 01:00:42;;;;;;;15.00;13.80;;;20.50;99.90;;;;;;4954774;28;20413;-58
2023/06/10 01:03:11;;;;;;;14.70;13.50;;;20.50;99.90;;;;;;4954628;28;20405;-58
2023/06/10 01:05:38;;;;;;;15.30;13.90;;;20.50;99.90;;;;;;4955423;28;20323;-58
2023/06/10 01:08:28;;;;;;;14.27;13.27;;;20.40;99.90;;;;;;4954592;29;20885;-58
2023/06/10 01:10:59;;;;;;;14.63;13.57;;;20.30;99.90;;;;;;4954651;28;20405;-58
2023/06/10 01:13:28;;;;;;;15.63;14.03;;;20.30;99.90;;;;;;4953680;29;20905;-58
2023/06/10 01:15:55;;;;;;;17.37;15.67;;;20.30;99.90;;;;;;4953596;28;20460;-58
2023/06/10 01:18:22;;;;;;;15.70;14.00;;;20.30;99.90;;;;;;4955369;28;20889;-58
2023/06/10 01:20:48;;;;;;;14.87;13.77;;;20.20;99.90;;;;;;4954434;29;20413;-58
2023/06/10 01:23:15;;;;;;;14.40;13.30;;;20.20;99.90;;;;;;4954399;28;20431;-58
2023/06/10 01:26:07;;;;;;;14.73;13.63;;;20.10;99.90;;;;;;4954426;28;20412;-58
2023/06/10 01:28:54;;;;;;;14.73;13.53;;;20.10;99.90;;;;;;4954774;28;20896;-58
2023/06/10 01:31:33;;;;;;;15.90;14.70;;;20.10;99.90;;;;;;4955272;28;20416;-58
2023/06/10 01:34:02;;;;;;;15.20;13.93;;;20.10;99.90;;;;;;4939095;28;20689;-58
2023/06/10 01:36:28;;;;;;;14.67;13.57;;;20.00;99.90;;;;;;4934981;29;20433;-58
2023/06/10 01:38:55;;;;;;;15.27;14.00;;;20.00;99.90;;;;;;4942676;29;20507;-58
2023/06/10 01:41:21;;;;;;;15.57;14.13;;;20.00;99.90;;;;;;4954687;28;20827;-58
2023/06/10 01:43:48;;;;;;;16.30;15.00;;;20.00;99.90;;;;;;4953518;28;20456;-58
2023/06/10 01:46:15;;;;;;;16.03;14.63;;;19.90;99.90;;;;;;4954553;29;20424;-58
2023/06/10 01:48:42;;;;;;;16.73;15.40;;;19.90;99.90;;;;;;4952235;29;20433;-58
2023/06/10 01:51:08;;;;;;;16.30;15.07;;;19.70;99.90;;;;;;4954712;29;20407;-58
2023/06/10 01:53:33;;;;;;;16.73;15.40;;;19.70;99.90;;;;;;4953763;29;20433;-58
2023/06/10 01:55:59;;;;;;;16.10;14.90;;;19.60;99.90;;;;;;4954022;28;20236;-58
2023/06/10 01:58:25;;;;;;;18.03;16.63;;;19.40;99.90;;;;;;4954861;28;20181;-58
2023/06/10 02:00:51;;;;;;;18.00;16.30;;;19.30;99.90;;;;;;4953022;29;20420;-58
2023/06/10 02:03:18;;;;;;;17.80;16.40;;;19.20;99.90;;;;;;4954553;29;20208;-58
2023/06/10 02:05:43;;;;;;;18.60;17.10;;;19.10;99.90;;;;;;4953984;28;20181;-58
2023/06/10 02:08:09;;;;;;;18.90;17.30;;;19.00;99.90;;;;;;4953810;28;20440;-58
2023/06/10 02:10:35;;;;;;;17.27;15.93;;;19.00;99.90;;;;;;4953742;29;20614;-58
2023/06/10 02:13:01;;;;;;;17.37;15.87;;;19.10;99.90;;;;;;4953508;29;20595;-58
2023/06/10 02:15:26;;;;;;;17.80;16.30;;;19.10;99.90;;;;;;4954401;28;20251;-58
2023/06/10 02:17:52;;;;;;;17.30;16.00;;;19.00;99.90;;;;;;4952930;28;20551;-58
2023/06/10 02:20:18;;;;;;;18.00;16.60;;;19.00;99.90;;;;;;4954421;29;20216;-58
2023/06/10 02:22:44;;;;;;;16.83;15.53;;;19.00;99.90;;;;;;4953863;28;20173;-58
2023/06/10 02:25:10;;;;;;;16.17;14.93;;;19.00;99.90;;;;;;4954404;28;20509;-58
2023/06/10 02:27:36;;;;;;;17.33;15.80;;;19.00;99.90;;;;;;4954361;28;20193;-58
2023/06/10 02:30:01;;;;;;;17.50;16.00;;;19.10;99.90;;;;;;4953976;28;20916;-58
2023/06/10 02:32:28;;;;;;;17.30;15.83;;;19.00;99.90;;;;;;4953472;29;20197;-58
2023/06/10 02:34:54;;;;;;;16.50;15.27;;;19.00;99.90;;;;;;4953652;28;20256;-58
2023/06/10 02:37:20;;;;;;;22.10;15.60;;;19.10;99.90;;;;;;4953320;28;20416;-58
2023/06/10 02:39:46;;;;;;;17.10;15.60;;;19.10;99.90;;;;;;4950523;29;21028;-58
2023/06/10 02:42:12;;;;;;;16.07;14.83;;;19.10;99.90;;;;;;4954215;28;20484;-58
2023/06/10 02:44:38;;;;;;;17.23;15.77;;;19.10;99.90;;;;;;4953663;28;20461;-58
2023/06/10 02:47:04;;;;;;;16.50;15.10;;;19.10;99.90;;;;;;4954516;28;20506;-58
2023/06/10 02:49:30;;;;;;;16.20;14.93;;;19.10;99.90;;;;;;4957420;29;20433;-59
2023/06/10 02:51:56;;;;;;;17.20;15.70;;;19.10;99.90;;;;;;4956971;28;20448;-58
2023/06/10 02:54:25;;;;;;;16.63;15.20;;;19.10;99.90;;;;;;4958086;29;20599;-58
2023/06/10 02:56:52;;;;;;;17.73;16.27;;;19.00;99.90;;;;;;4955858;29;20468;-58
2023/06/10 02:59:18;;;;;;;17.73;16.23;;;19.00;99.90;;;;;;4956974;28;20841;-58
2023/06/10 03:01:46;;;;;;;18.43;16.87;;;19.00;99.90;;;;;;4957641;28;20408;-58
2023/06/10 03:04:13;;;;;;;19.13;17.53;;;18.90;99.90;;;;;;4957216;28;20424;-58
2023/06/10 03:06:40;;;;;;;18.90;17.20;;;18.80;99.90;;;;;;4956517;28;20428;-59
2023/06/10 03:09:09;;;;;;;17.90;16.50;;;18.70;99.90;;;;;;4955969;28;20452;-58
2023/06/10 03:11:35;;;;;;;18.23;16.73;;;18.70;99.90;;;;;;4957561;28;20421;-58
2023/06/10 03:14:01;;;;;;;18.07;16.57;;;18.70;99.90;;;;;;4956449;28;20420;-58
2023/06/10 03:16:27;;;;;;;17.27;15.83;;;18.70;99.90;;;;;;4957224;28;20839;-58
2023/06/10 03:18:53;;;;;;;18.33;16.83;;;18.70;99.90;;;;;;4955786;28;20435;-58
2023/06/10 03:21:19;;;;;;;19.10;17.50;;;18.70;99.90;;;;;;4957489;29;20492;-59
2023/06/10 03:23:45;;;;;;;18.27;16.70;;;18.70;99.90;;;;;;4957406;28;20172;-58
2023/06/10 03:26:14;;;;;;;18.57;16.97;;;18.70;99.90;;;;;;4956835;28;20935;-58
2023/06/10 03:28:40;;;;;;;19.30;17.70;;;18.70;99.90;;;;;;4956274;28;20482;-58
2023/06/10 03:31:05;;;;;;;19.27;17.67;;;18.70;99.90;;;;;;4956539;28;20401;-58
2023/06/10 03:33:32;;;;;;;20.40;18.37;;;18.70;99.90;;;;;;4956391;28;21087;-58
2023/06/10 03:35:58;;;;;;;19.23;17.53;;;18.60;99.90;;;;;;4956318;28;20228;-58
2023/06/10 03:38:24;;;;;;;18.93;17.33;;;18.70;99.90;;;;;;4955207;28;20463;-58
2023/06/10 03:40:49;;;;;;;19.37;17.77;;;18.60;99.90;;;;;;4956231;28;20613;-58
2023/06/10 03:43:15;;;;;;;18.67;17.13;;;18.70;99.90;;;;;;4956809;28;20469;-58
2023/06/10 03:45:41;;;;;;;19.63;18.03;;;18.70;99.90;;;;;;4956816;28;20529;-58
2023/06/10 03:48:08;;;;;;;18.13;16.73;;;18.70;99.90;;;;;;4956198;28;20177;-58
2023/06/10 03:50:35;;;;;;;21.87;19.77;;;18.70;99.90;;;;;;4956739;28;20576;-58
2023/06/10 03:53:01;;;;;;;18.97;17.27;;;18.60;99.90;;;;;;4956059;28;20405;-58
2023/06/10 03:55:27;;;;;;;18.67;17.17;;;18.50;99.90;;;;;;4956267;29;20462;-58
2023/06/10 03:57:53;;;;;;;20.00;18.27;;;18.50;99.90;;;;;;4954353;28;20185;-58
2023/06/10 04:00:21;;;;;;;18.90;17.30;;;18.50;99.90;;;;;;4955302;29;20265;-58
2023/06/10 04:02:48;;;;;;;18.77;17.17;;;18.50;99.90;;;;;;4956466;28;20523;-59
2023/06/10 04:05:20;;;;;;;18.23;16.70;;;18.50;99.90;;;;;;4956412;29;20484;-58
2023/06/10 04:07:48;;;;;;;25.20;22.90;;;18.50;99.90;;;;;;4955956;28;20515;-58
2023/06/10 04:10:14;;;;;;;19.97;18.37;;;18.50;99.90;;;;;;4956459;29;20806;-58
2023/06/10 04:12:40;;;;;;;19.90;18.30;;;18.60;99.90;;;;;;4956775;28;20924;-58
2023/06/10 04:15:07;;;;;;;18.53;17.03;;;18.60;99.90;;;;;;4954426;29;20474;-58
2023/06/10 04:17:33;;;;;;;19.03;17.53;;;18.60;99.90;;;;;;4955296;28;20487;-58
2023/06/10 04:19:58;;;;;;;19.27;17.67;;;18.60;99.90;;;;;;4940127;29;20417;-58
2023/06/10 04:22:25;;;;;;;19.33;17.73;;;18.60;99.90;;;;;;4936950;29;20469;-59
2023/06/10 04:24:51;;;;;;;19.60;17.90;;;18.60;99.90;;;;;;4936080;29;20535;-58
2023/06/10 04:27:16;;;;;;;19.53;17.93;;;18.60;99.90;;;;;;4937080;29;20409;-59
2023/06/10 04:29:42;;;;;;;19.17;17.47;;;18.60;99.90;;;;;;4949986;29;20189;-58
2023/06/10 04:32:08;;;;;;;21.57;19.70;;;18.70;99.90;;;;;;4955399;29;20633;-58
2023/06/10 04:34:34;;;;;;;19.33;17.50;;;18.70;99.90;;;;;;4955908;28;20205;-58
2023/06/10 04:37:00;;;;;;;19.90;18.20;;;18.70;99.90;;;;;;4954660;28;20185;-58
2023/06/10 04:39:26;;;;;;;27.97;25.30;;;18.60;99.90;;;;;;4954957;28;20480;-58
2023/06/10 04:41:52;;;;;;;22.57;20.67;;;18.60;99.90;;;;;;4954940;28;20180;-58
2023/06/10 04:44:18;;;;;;;20.07;18.47;;;18.60;99.90;;;;;;4955808;28;20236;-58
2023/06/10 04:46:45;;;;;;;23.40;21.30;;;18.60;99.90;;;;;;4955670;28;20204;-58
2023/06/10 04:49:11;;;;;;;21.30;19.40;;;18.50;99.90;;;;;;4954824;28;21051;-58
2023/06/10 04:51:37;;;;;;;20.83;18.93;;;18.40;99.90;;;;;;4955826;29;20409;-58
2023/06/10 04:54:03;;;;;;;18.93;17.40;;;18.40;99.90;;;;;;4954930;28;20404;-58
2023/06/10 04:56:30;;;;;;;18.93;17.23;;;18.50;99.90;;;;;;4954368;28;20456;-58
2023/06/10 04:58:59;;;;;;;18.00;16.50;;;18.60;99.90;;;;;;4954790;29;20756;-58
2023/06/10 05:01:24;;;;;;;18.33;16.63;;;18.70;99.90;;;;;;4955404;28;20951;-58
2023/06/10 05:03:50;;;;;;;18.83;17.20;;;18.80;99.90;;;;;;4955379;28;20417;-58
2023/06/10 05:06:16;;;;;;;17.43;16.07;;;18.90;99.90;;;;;;4954779;28;20192;-58
2023/06/10 05:08:42;;;;;;;20.63;18.73;;;19.00;99.90;;;;;;4952102;28;20429;-58
2023/06/10 05:11:08;;;;;;;26.60;24.30;;;19.00;99.90;;;;;;4953651;28;20256;-58
2023/06/10 05:13:34;;;;;;;19.50;17.90;;;19.00;99.90;;;;;;4955203;28;20272;-58
2023/06/10 05:16:00;;;;;;;17.23;15.93;;;19.20;99.90;;;;;;4953333;28;20894;-58
2023/06/10 05:18:26;;;;;;;17.90;16.17;;;19.20;99.90;;;;;;4955058;29;20451;-58
2023/06/10 05:20:53;;;;;;;18.67;17.07;;;19.20;99.90;;;;;;4955076;28;20409;-58
2023/06/10 05:23:20;;;;;;;17.67;16.27;;;19.00;99.90;;;;;;4955221;28;20497;-58
2023/06/10 05:25:45;;;;;;;18.10;16.53;;;19.10;99.90;;;;;;4954872;29;20431;-58
2023/06/10 05:28:11;;;;;;;17.70;16.27;;;19.00;99.90;;;;;;4954387;28;20862;-58
2023/06/10 05:30:37;;;;;;;18.07;16.57;;;19.00;99.90;;;;;;4954122;28;20935;-58
2023/06/10 05:33:04;;;;;;;18.27;16.63;;;19.00;99.90;;;;;;4946705;28;20184;-58
2023/06/10 05:35:30;;;;;;;16.73;15.43;;;19.00;99.90;;;;;;4953654;28;20474;-58
2023/06/10 05:37:56;;;;;;;16.67;15.37;;;19.00;99.90;;;;;;4951621;28;20433;-58
2023/06/10 05:40:27;;;;;;;16.97;15.57;;;18.90;99.90;;;;;;4954218;29;20413;-58
2023/06/10 05:42:53;;;;;;;16.70;15.30;;;19.00;99.90;;;;;;4954803;28;20591;-58
2023/06/10 05:45:19;;;;;;;16.03;14.50;;;19.00;99.90;;;;;;4953443;28;20429;-58
2023/06/10 05:47:44;;;;;;;17.53;16.13;;;19.10;99.90;;;;;;4954756;29;20184;-58
2023/06/10 05:50:10;;;;;;;18.47;16.80;;;19.20;99.90;;;;;;4954006;28;20177;-58
2023/06/10 05:52:36;;;;;;;15.47;14.10;;;19.20;99.90;;;;;;4954923;28;20184;-58
2023/06/10 05:55:05;;;;;;;16.03;14.73;;;19.40;99.90;;;;;;4953934;29;20340;-58
2023/06/10 05:57:31;;;;;;;15.43;14.00;;;19.40;99.90;;;;;;4953609;28;20443;-58
2023/06/10 05:59:57;;;;;;;15.53;14.13;;;19.60;99.90;;;;;;4953411;28;20405;-58
2023/06/10 06:02:23;;;;;;;14.40;13.13;;;19.80;99.90;;;;;;4950623;28;20192;-58
2023/06/10 06:04:48;;;;;;;14.93;13.70;;;19.90;99.90;;;;;;4953559;29;20228;-58
2023/06/10 06:07:14;;;;;;;15.80;14.40;;;20.00;99.90;;;;;;4952626;29;20469;-58
2023/06/10 06:09:40;;;;;;;15.23;14.00;;;20.10;99.90;;;;;;4953646;29;20191;-58
2023/06/10 06:12:07;;;;;;;15.40;14.10;;;20.20;99.90;;;;;;4950696;29;20455;-58
2023/06/10 06:14:38;;;;;;;14.43;13.33;;;20.20;99.90;;;;;;4953834;28;20468;-58
2023/06/10 06:17:03;;;;;;;15.03;13.80;;;20.20;99.90;;;;;;4953750;28;20401;-59
2023/06/10 06:19:29;;;;;;;14.73;13.50;;;20.20;99.90;;;;;;4952584;29;20971;-58
2023/06/10 06:21:55;;;;;;;14.37;13.20;;;20.20;99.90;;;;;;4955513;28;20504;-59
2023/06/10 06:24:20;;;;;;;15.20;13.93;;;20.30;99.90;;;;;;4957668;29;20185;-58
2023/06/10 06:26:46;;;;;;;13.60;12.60;;;20.40;99.90;;;;;;4957904;29;20232;-58
2023/06/10 06:29:12;;;;;;;13.93;12.93;;;20.50;99.90;;;;;;4956214;29;20185;-58
2023/06/10 06:31:38;;;;;;;13.50;12.50;;;20.60;99.90;;;;;;4955288;28;20211;-57
2023/06/10 06:34:03;;;;;;;13.07;11.80;;;20.60;99.90;;;;;;4956284;29;20224;-57
2023/06/10 06:36:30;;;;;;;12.60;11.70;;;20.70;99.90;;;;;;4955367;29;20220;-57
2023/06/10 06:38:55;;;;;;;13.90;12.70;;;20.80;99.90;;;;;;4957623;28;20633;-57
2023/06/10 06:41:21;;;;;;;13.33;12.20;;;20.90;99.90;;;;;;4954088;29;20429;-56
2023/06/10 06:43:47;;;;;;;12.80;11.80;;;21.00;99.90;;;;;;4955426;29;20319;-57
2023/06/10 06:46:13;;;;;;;13.97;12.70;;;21.10;99.90;;;;;;4955455;29;20468;-57
2023/06/10 06:48:39;;;;;;;11.93;11.03;;;21.00;99.90;;;;;;4956759;28;20695;-58
2023/06/10 06:51:05;;;;;;;13.27;12.00;;;21.10;99.90;;;;;;4956005;28;20447;-57
2023/06/10 06:53:30;;;;;;;12.47;11.50;;;21.20;99.90;;;;;;4957367;28;20188;-57
2023/06/10 06:55:56;;;;;;;11.87;10.97;;;21.30;99.90;;;;;;4957673;28;20284;-56
2023/06/10 06:58:22;;;;;;;12.00;10.90;;;21.40;99.90;;;;;;4956862;29;20613;-58
2023/06/10 07:00:48;;;;;;;13.27;11.40;;;21.50;99.90;;;;;;4957566;29;20177;-57
2023/06/10 07:03:13;;;;;;;14.80;13.40;;;21.50;99.90;;;;;;4956963;29;20216;-60
2023/06/10 07:05:39;;;;;;;12.13;11.03;;;21.60;99.90;;;;;;4957217;28;20185;-60
2023/06/10 07:08:05;;;;;;;11.70;10.90;;;21.70;99.90;;;;;;4956854;28;20177;-59
2023/06/10 07:10:31;;;;;;;12.60;11.60;;;21.70;99.90;;;;;;4957275;28;20183;-59
2023/06/10 07:12:57;;;;;;;11.40;10.40;;;21.90;99.90;;;;;;4956712;28;20785;-59
2023/06/10 07:15:22;;;;;;;17.60;16.00;;;22.10;99.90;;;;;;4956422;29;20236;-59
2023/06/10 07:17:48;;;;;;;16.40;14.93;;;22.20;99.90;;;;;;4956233;28;20216;-59
2023/06/10 07:20:14;;;;;;;15.13;13.73;;;22.40;99.90;;;;;;4951685;28;20196;-59
2023/06/10 07:22:42;;;;;;;12.73;11.73;;;22.60;99.90;;;;;;4953619;28;20189;-59
2023/06/10 07:25:07;;;;;;;14.10;12.90;;;22.70;99.90;;;;;;4953077;28;20437;-60
2023/06/10 07:27:33;;;;;;;15.97;14.57;;;22.80;99.70;;;;;;4955078;28;20987;-59
2023/06/10 07:30:00;;;;;;;18.47;16.53;;;23.00;99.90;;;;;;4957059;29;20647;-59
2023/06/10 07:32:26;;;;;;;13.30;12.00;;;23.00;99.70;;;;;;4945620;28;20528;-59
2023/06/10 07:34:52;;;;;;;12.70;11.60;;;23.20;98.10;;;;;;4950092;28;20456;-59
2023/06/10 07:37:19;;;;;;;12.47;11.43;;;23.30;97.10;;;;;;4956345;28;20213;-59
2023/06/10 07:39:45;;;;;;;13.87;12.77;;;23.40;97.30;;;;;;4955264;28;20909;-59
2023/06/10 07:42:11;;;;;;;14.03;12.77;;;23.50;97.40;;;;;;4956488;28;20428;-59
2023/06/10 07:44:36;;;;;;;11.47;10.47;;;23.60;97.00;;;;;;4956990;29;20591;-59
2023/06/10 07:47:02;;;;;;;11.30;10.30;;;23.60;95.50;;;;;;4956236;29;20656;-59
2023/06/10 07:49:28;;;;;;;11.23;10.33;;;23.70;94.80;;;;;;4956024;28;20216;-59
2023/06/10 07:51:55;;;;;;;10.87;9.77;;;23.80;94.20;;;;;;4956549;28;20431;-59
2023/06/10 07:54:21;;;;;;;11.40;10.60;;;23.90;95.10;;;;;;4956075;28;20177;-59
2023/06/10 07:56:47;;;;;;;10.90;10.10;;;23.90;95.00;;;;;;4956631;29;20504;-59
2023/06/10 07:59:14;;;;;;;13.53;12.27;;;24.10;95.30;;;;;;4954916;29;20893;-59
2023/06/10 08:01:40;;;;;;;162.50;139.63;;;24.20;95.20;;;;;;4946194;29;20166;-59
2023/06/10 08:04:06;;;;;;;122.23;109.73;;;24.20;93.80;;;;;;4947570;28;20489;-59
2023/06/10 08:06:32;;;;;;;26.73;23.97;;;24.40;94.20;;;;;;4950589;28;20441;-59
2023/06/10 08:08:58;;;;;;;35.33;32.03;;;24.50;94.00;;;;;;4939235;29;20905;-59
2023/06/10 08:11:24;;;;;;;16.63;15.23;;;24.60;93.10;;;;;;4939146;29;20197;-59
2023/06/10 08:13:49;;;;;;;13.67;12.43;;;24.80;93.60;;;;;;4956065;28;20181;-59
2023/06/10 08:16:16;;;;;;;11.63;10.73;;;24.90;92.20;;;;;;4955309;29;20287;-59
2023/06/10 08:18:41;;;;;;;12.73;11.73;;;25.00;91.50;;;;;;4955334;29;20227;-59
2023/06/10 08:21:07;;;;;;;16.23;14.83;;;25.00;91.70;;;;;;4954975;28;20460;-60
2023/06/10 08:23:33;;;;;;;11.57;10.70;;;25.10;92.70;;;;;;4956272;28;20185;-59
2023/06/10 08:25:59;;;;;;;10.20;9.50;;;25.20;92.00;;;;;;4956105;29;20205;-59
2023/06/10 08:28:24;;;;;;;11.93;10.93;;;25.20;92.20;;;;;;4955494;29;20236;-59
2023/06/10 08:30:52;;;;;;;10.50;9.60;;;25.30;92.40;;;;;;4955962;29;20173;-59
2023/06/10 08:33:18;;;;;;;12.47;11.30;;;25.40;92.00;;;;;;4955263;29;20822;-59
2023/06/10 08:35:44;;;;;;;12.17;11.17;;;25.40;91.50;;;;;;4954585;29;20732;-59
2023/06/10 08:38:09;;;;;;;88.70;72.33;;;25.40;91.70;;;;;;4955060;29;20496;-59
2023/06/10 08:40:35;;;;;;;14.90;13.70;;;25.50;92.20;;;;;;4954397;29;20222;-59
2023/06/10 08:43:07;;;;;;;11.57;10.60;;;25.60;91.30;;;;;;4955493;28;20227;-59
2023/06/10 08:45:35;;;;;;;33.23;25.93;;;25.80;92.60;;;;;;4955943;28;20176;-59
2023/06/10 08:48:06;;;;;;;12.40;11.20;;;25.90;92.40;;;;;;4954746;28;20788;-59
2023/06/10 08:50:36;;;;;;;12.93;11.93;;;25.90;92.10;;;;;;4954318;29;20924;-59
2023/06/10 08:53:05;;;;;;;10.83;10.00;;;25.90;89.50;;;;;;4955609;28;20428;-59
2023/06/10 08:55:36;;;;;;;12.30;10.53;;;25.90;90.50;;;;;;4955461;28;20583;-59
2023/06/10 08:58:02;;;;;;;11.07;10.30;;;26.00;90.10;;;;;;4955277;28;20419;-59
2023/06/10 09:00:29;;;;;;;10.33;9.63;;;26.10;89.40;;;;;;4954857;29;20420;-60
2023/06/10 09:02:56;;;;;;;10.30;9.40;;;26.10;87.20;;;;;;4955095;28;20897;-59
2023/06/10 09:05:22;;;;;;;11.70;10.50;;;26.20;85.80;;;;;;4954448;28;20413;-59
2023/06/10 09:07:50;;;;;;;10.77;9.87;;;26.00;83.50;;;;;;4954244;28;20436;-59
2023/06/10 09:10:16;;;;;;;10.80;9.80;;;26.10;87.60;;;;;;4953078;28;20461;-59
2023/06/10 09:12:42;;;;;;;11.33;10.33;;;26.20;85.30;;;;;;4955346;28;20423;-59
2023/06/10 09:15:09;;;;;;;11.27;10.27;;;26.30;85.90;;;;;;4954683;28;20543;-59
2023/06/10 09:17:36;;;;;;;10.80;9.90;;;26.50;87.40;;;;;;4953933;29;20177;-59
2023/06/10 09:20:02;;;;;;;78.97;70.33;;;26.60;88.00;;;;;;4955155;28;20508;-59
2023/06/10 09:22:28;;;;;;;43.13;38.77;;;26.70;87.60;;;;;;4954488;29;20428;-59
2023/06/10 09:25:08;;;;;;;26.70;23.53;;;26.90;90.20;;;;;;4955128;28;20499;-64
2023/06/10 09:27:53;;;;;;;11.80;10.90;;;27.00;87.20;;;;;;4955568;29;20589;-64
2023/06/10 09:30:26;;;;;;;11.30;10.40;;;27.00;85.70;;;;;;4953967;28;20409;-63
2023/06/10 09:32:54;;;;;;;21.87;19.73;;;27.10;84.80;;;;;;4954593;28;20449;-63
2023/06/10 09:35:19;;;;;;;23.20;20.90;;;26.80;87.10;;;;;;4954187;28;20937;-64
2023/06/10 09:37:45;;;;;;;19.00;17.20;;;26.60;88.60;;;;;;4954716;28;20448;-63
2023/06/10 09:40:12;;;;;;;17.10;15.40;;;26.40;88.30;;;;;;4954370;28;20173;-63
2023/06/10 09:42:38;;;;;;;16.00;14.50;;;25.90;89.50;;;;;;4954301;29;20339;-63
2023/06/10 09:45:05;;;;;;;14.40;12.93;;;25.60;90.20;;;;;;4955255;28;20412;-63
2023/06/10 09:47:31;;;;;;;13.33;12.33;;;25.40;90.70;;;;;;4952207;29;20980;-63
2023/06/10 09:49:57;;;;;;;11.97;11.03;;;25.30;91.50;;;;;;4954533;28;20513;-64
2023/06/10 09:52:24;;;;;;;13.00;12.00;;;25.50;91.90;;;;;;4954165;28;20179;-64
2023/06/10 09:54:58;;;;;;;14.23;12.93;;;25.60;91.70;;;;;;4954464;28;20556;-64
2023/06/10 09:57:24;;;;;;;12.53;11.53;;;25.60;91.30;;;;;;4953555;28;20417;-64
2023/06/10 09:59:53;;;;;;;14.17;12.93;;;25.70;91.40;;;;;;4954670;28;20396;-63
2023/06/10 10:02:20;;;;;;;11.73;10.57;;;25.50;91.20;;;;;;4954112;28;20401;-64
2023/06/10 10:04:45;;;;;;;11.57;10.67;;;25.30;92.30;;;;;;4954728;28;20412;-64
2023/06/10 10:07:11;;;;;;;11.50;10.57;;;25.60;92.60;;;;;;4954076;28;20743;-64
2023/06/10 10:09:38;;;;;;;12.93;11.93;;;25.70;92.70;;;;;;4953472;29;20181;-64
2023/06/10 10:12:12;;;;;;;13.57;12.37;;;25.60;91.50;;;;;;4954521;28;20412;-64
2023/06/10 10:14:39;;;;;;;13.83;12.63;;;25.40;91.60;;;;;;4954820;29;20458;-64
2023/06/10 10:17:10;;;;;;;13.10;11.93;;;25.30;91.90;;;;;;4952648;29;20481;-66
2023/06/10 10:20:04;;;;;;;14.10;12.97;;;25.20;92.10;;;;;;4953936;28;20501;-65
2023/06/10 10:22:39;;;;;;;13.37;12.27;;;25.40;94.00;;;;;;4953870;28;20401;-64
2023/06/10 10:25:13;;;;;;;35.73;28.70;;;25.70;92.30;;;;;;4952798;28;20460;-63
2023/06/10 10:27:48;;;;;;;72.50;65.10;;;25.90;91.60;;;;;;4954412;28;20793;-60
2023/06/10 10:30:17;;;;;;;12.63;11.67;;;26.30;93.00;;;;;;4953857;28;20396;-61
2023/06/10 10:33:09;;;;;;;11.07;10.27;;;26.70;90.60;;;;;;4954073;28;20428;-61
2023/06/10 10:35:37;;;;;;;10.43;9.53;;;27.10;91.30;;;;;;4953416;28;20782;-62
2023/06/10 10:38:03;;;;;;;11.17;10.17;;;27.40;89.00;;;;;;4954447;28;20416;-61
2023/06/10 10:40:30;;;;;;;11.27;10.27;;;27.60;84.40;;;;;;4953667;28;20516;-62
2023/06/10 10:42:58;;;;;;;10.90;10.10;;;27.90;87.30;;;;;;4953568;28;20472;-61
2023/06/10 10:45:24;;;;;;;11.80;10.80;;;28.10;84.60;;;;;;4952707;29;20452;-62
2023/06/10 10:47:55;;;;;;;11.63;10.60;;;28.40;85.90;;;;;;4954261;28;20471;-61
2023/06/10 10:50:21;;;;;;;10.40;9.70;;;28.60;83.40;;;;;;4952387;29;20185;-61
2023/06/10 10:53:07;;;;;;;11.10;10.30;;;28.80;81.30;;;;;;4952185;28;20431;-61
2023/06/10 10:55:33;;;;;;;12.20;10.70;;;29.00;83.00;;;;;;4951488;29;20735;-61
2023/06/10 10:58:03;;;;;;;11.80;11.00;;;29.20;81.50;;;;;;4953573;29;20492;-61
2023/06/10 11:00:37;;;;;;;11.23;10.33;;;29.30;78.60;;;;;;4953279;28;20173;-61
2023/06/10 11:03:02;;;;;;;11.43;10.53;;;29.40;77.80;;;;;;4953993;29;20397;-60
2023/06/10 11:05:37;;;;;;;14.00;12.90;;;29.60;79.80;;;;;;4953448;29;20420;-61
2023/06/10 11:08:03;;;;;;;12.43;11.63;;;29.70;79.50;;;;;;4955514;28;20173;-61
2023/06/10 11:10:30;;;;;;;11.07;10.33;;;29.80;75.60;;;;;;4956916;29;20801;-60
2023/06/10 11:12:57;;;;;;;12.00;11.20;;;29.90;77.20;;;;;;4957562;28;20173;-61
2023/06/10 11:15:30;;;;;;;11.70;10.83;;;29.90;75.20;;;;;;4955807;29;20460;-61
2023/06/10 11:18:24;;;;;;;11.83;10.93;;;29.90;74.20;;;;;;4957326;29;20423;-61
2023/06/10 11:20:50;;;;;;;12.20;11.30;;;30.00;74.10;;;;;;4957377;28;20401;-61
2023/06/10 11:23:28;;;;;;;11.90;11.00;;;30.10;72.00;;;;;;4956650;29;20754;-61
2023/06/10 11:26:34;;;;;;;11.83;10.93;;;30.20;72.80;;;;;;4957565;28;20185;-61
2023/06/10 11:28:59;;;;;;;12.17;11.37;;;30.30;72.20;;;;;;4957179;28;20401;-61
2023/06/10 11:31:29;;;;;;;11.73;10.70;;;30.20;74.10;;;;;;4956260;28;20400;-61
2023/06/10 11:34:01;;;;;;;11.93;11.10;;;30.20;72.20;;;;;;4957055;28;20169;-61
2023/06/10 11:36:28;;;;;;;17.90;16.47;;;30.30;71.80;;;;;;4956431;28;20445;-61
2023/06/10 11:39:02;;;;;;;16.30;15.00;;;30.30;71.10;;;;;;4957380;28;20440;-61
2023/06/10 11:41:30;;;;;;;10.80;10.00;;;30.30;72.70;;;;;;4956084;29;20869;-61
2023/06/10 11:44:03;;;;;;;11.93;11.00;;;30.40;71.20;;;;;;4956422;28;20551;-61
2023/06/10 11:46:28;;;;;;;11.77;10.77;;;30.30;68.10;;;;;;4954788;28;20441;-61
2023/06/10 11:48:56;;;;;;;11.70;10.80;;;30.40;69.00;;;;;;4956579;29;20932;-61
2023/06/10 11:51:25;;;;;;;11.83;10.93;;;30.40;70.00;;;;;;4956268;29;20248;-61
2023/06/10 11:53:52;;;;;;;11.30;10.57;;;30.40;70.80;;;;;;4956572;29;20416;-61
2023/06/10 11:56:29;;;;;;;11.90;11.07;;;30.50;71.80;;;;;;4956263;29;20539;-61
2023/06/10 11:59:04;;;;;;;12.37;11.63;;;30.60;72.00;;;;;;4957041;29;20516;-61
2023/06/10 12:01:31;;;;;;;12.20;11.40;;;30.60;71.50;;;;;;4956021;28;20409;-61
2023/06/10 12:04:08;;;;;;;11.50;10.80;;;30.60;69.50;;;;;;4956892;28;20409;-61
2023/06/10 12:06:47;;;;;;;11.87;10.87;;;30.60;69.00;;;;;;4955597;28;20955;-60
2023/06/10 12:09:25;;;;;;;11.30;10.40;;;30.50;68.60;;;;;;4956535;28;20385;-61
2023/06/10 12:12:04;;;;;;;11.00;10.30;;;30.50;69.80;;;;;;4956502;28;20503;-61
2023/06/10 12:14:58;;;;;;;12.13;11.33;;;30.50;70.20;;;;;;4955746;28;20432;-61
2023/06/10 12:17:33;;;;;;;11.63;10.77;;;30.60;67.00;;;;;;4953600;29;20463;-61
2023/06/10 12:20:00;;;;;;;12.10;11.20;;;30.50;69.00;;;;;;4954735;28;20439;-60
2023/06/10 12:22:26;;;;;;;11.90;11.00;;;30.50;69.20;;;;;;4955516;28;20420;-61
2023/06/10 12:25:03;;;;;;;12.27;11.03;;;30.50;66.90;;;;;;4956450;28;20435;-61
2023/06/10 12:27:30;;;;;;;11.17;10.37;;;30.50;66.30;;;;;;4955281;28;20248;-61
2023/06/10 12:30:02;;;;;;;11.40;10.60;;;30.40;67.80;;;;;;4956027;28;20463;-61
2023/06/10 12:32:45;;;;;;;11.47;10.57;;;30.40;66.40;;;;;;4955175;28;20885;-61